sensor_id;sensor_type;location;lat;lon;timestamp;temperature;humidity
32895;DHT22;19251;49.484;8.260;2023-06-04T00:01:06;17.60;7.70
32895;DHT22;19251;49.484;8.260;2023-06-04T00:06:17;17.50;7.90
32895;DHT22;19251;49.484;8.260;2023-06-04T00:11:19;17.40;8.20
32895;DHT22;19251;49.484;8.260;2023-06-04T00:16:22;17.30;8.50
32895;DHT22;19251;49.484;8.260;2023-06-04T00:21:24;17.20;8.50
32895;DHT22;19251;49.484;8.260;2023-06-04T00:26:26;17.10;8.60
32895;DHT22;19251;49.484;8.260;2023-06-04T00:31:28;17.00;8.90
32895;DHT22;19251;49.484;8.260;2023-06-04T00:36:31;17.00;9.00
32895;DHT22;19251;49.484;8.260;2023-06-04T00:41:33;17.00;9.20
32895;DHT22;19251;49.484;8.260;2023-06-04T00:46:35;16.90;9.20
32895;DHT22;19251;49.484;8.260;2023-06-04T00:51:38;16.80;9.10
32895;DHT22;19251;49.484;8.260;2023-06-04T00:56:40;16.80;9.30
32895;DHT22;19251;49.484;8.260;2023-06-04T01:02:02;16.80;9.40
32895;DHT22;19251;49.484;8.260;2023-06-04T01:07:05;16.70;9.40
32895;DHT22;19251;49.484;8.260;2023-06-04T01:12:09;16.70;9.40
32895;DHT22;19251;49.484;8.260;2023-06-04T01:27:36;16.50;9.70
32895;DHT22;19251;49.484;8.260;2023-06-04T01:32:39;16.50;9.80
32895;DHT22;19251;49.484;8.260;2023-06-04T01:37:41;16.40;9.70
32895;DHT22;19251;49.484;8.260;2023-06-04T01:42:43;16.40;9.80
32895;DHT22;19251;49.484;8.260;2023-06-04T01:47:46;16.30;9.80
32895;DHT22;19251;49.484;8.260;2023-06-04T01:52:48;16.30;10.00
32895;DHT22;19251;49.484;8.260;2023-06-04T01:57:51;16.20;9.90
32895;DHT22;19251;49.484;8.260;2023-06-04T02:02:53;16.20;10.10
32895;DHT22;19251;49.484;8.260;2023-06-04T02:07:58;16.10;10.10
32895;DHT22;19251;49.484;8.260;2023-06-04T02:18:13;16.10;10.20
32895;DHT22;19251;49.484;8.260;2023-06-04T02:23:19;16.00;10.20
32895;DHT22;19251;49.484;8.260;2023-06-04T02:28:21;16.00;10.30
32895;DHT22;19251;49.484;8.260;2023-06-04T02:33:23;16.00;10.30
32895;DHT22;19251;49.484;8.260;2023-06-04T02:38:25;16.00;10.30
32895;DHT22;19251;49.484;8.260;2023-06-04T02:43:27;15.90;10.30
32895;DHT22;19251;49.484;8.260;2023-06-04T02:48:29;15.90;10.30
32895;DHT22;19251;49.484;8.260;2023-06-04T02:53:31;15.80;10.30
32895;DHT22;19251;49.484;8.260;2023-06-04T02:58:33;15.70;10.30
32895;DHT22;19251;49.484;8.260;2023-06-04T03:03:40;15.70;10.40
32895;DHT22;19251;49.484;8.260;2023-06-04T03:08:43;15.70;10.50
32895;DHT22;19251;49.484;8.260;2023-06-04T03:13:45;15.60;10.60
32895;DHT22;19251;49.484;8.260;2023-06-04T03:18:47;15.50;10.70
32895;DHT22;19251;49.484;8.260;2023-06-04T03:23:50;15.50;10.90
32895;DHT22;19251;49.484;8.260;2023-06-04T03:28:52;15.40;11.10
32895;DHT22;19251;49.484;8.260;2023-06-04T03:33:55;15.40;11.10
32895;DHT22;19251;49.484;8.260;2023-06-04T03:38:57;15.30;11.20
32895;DHT22;19251;49.484;8.260;2023-06-04T03:43:59;15.30;11.20
32895;DHT22;19251;49.484;8.260;2023-06-04T03:49:02;15.20;11.40
32895;DHT22;19251;49.484;8.260;2023-06-04T03:54:05;15.10;11.40
32895;DHT22;19251;49.484;8.260;2023-06-04T03:59:08;15.20;11.50
32895;DHT22;19251;49.484;8.260;2023-06-04T04:09:12;15.20;11.80
32895;DHT22;19251;49.484;8.260;2023-06-04T04:14:15;15.30;11.90
32895;DHT22;19251;49.484;8.260;2023-06-04T04:19:17;15.30;12.10
32895;DHT22;19251;49.484;8.260;2023-06-04T04:24:23;15.40;12.20
32895;DHT22;19251;49.484;8.260;2023-06-04T04:29:26;15.40;12.30
32895;DHT22;19251;49.484;8.260;2023-06-04T04:39:34;15.50;12.50
32895;DHT22;19251;49.484;8.260;2023-06-04T04:44:38;15.50;12.50
32895;DHT22;19251;49.484;8.260;2023-06-04T04:49:40;15.60;12.70
32895;DHT22;19251;49.484;8.260;2023-06-04T04:54:42;15.70;12.60
32895;DHT22;19251;49.484;8.260;2023-06-04T04:59:44;15.80;12.80
32895;DHT22;19251;49.484;8.260;2023-06-04T05:04:47;15.80;12.70
32895;DHT22;19251;49.484;8.260;2023-06-04T05:09:50;15.90;12.80
32895;DHT22;19251;49.484;8.260;2023-06-04T05:14:53;16.10;13.10
32895;DHT22;19251;49.484;8.260;2023-06-04T05:19:57;16.20;12.90
32895;DHT22;19251;49.484;8.260;2023-06-04T05:25:14;16.40;13.00
32895;DHT22;19251;49.484;8.260;2023-06-04T05:30:17;16.50;12.90
32895;DHT22;19251;49.484;8.260;2023-06-04T05:35:19;16.80;12.70
32895;DHT22;19251;49.484;8.260;2023-06-04T05:40:22;17.00;12.30
32895;DHT22;19251;49.484;8.260;2023-06-04T05:45:25;17.20;12.10
32895;DHT22;19251;49.484;8.260;2023-06-04T05:50:28;17.40;12.00
32895;DHT22;19251;49.484;8.260;2023-06-04T05:55:31;17.70;11.70
32895;DHT22;19251;49.484;8.260;2023-06-04T06:00:33;17.90;11.50
32895;DHT22;19251;49.484;8.260;2023-06-04T06:05:35;18.00;11.20
32895;DHT22;19251;49.484;8.260;2023-06-04T06:10:38;18.10;11.10
32895;DHT22;19251;49.484;8.260;2023-06-04T06:15:40;18.20;11.20
32895;DHT22;19251;49.484;8.260;2023-06-04T06:20:42;18.50;11.00
32895;DHT22;19251;49.484;8.260;2023-06-04T06:25:45;18.60;11.00
32895;DHT22;19251;49.484;8.260;2023-06-04T06:30:48;19.10;10.90
32895;DHT22;19251;49.484;8.260;2023-06-04T06:35:51;19.40;10.50
32895;DHT22;19251;49.484;8.260;2023-06-04T06:40:53;19.70;10.00
32895;DHT22;19251;49.484;8.260;2023-06-04T06:45:55;20.10;9.50
32895;DHT22;19251;49.484;8.260;2023-06-04T06:50:57;20.50;9.10
32895;DHT22;19251;49.484;8.260;2023-06-04T06:55:59;20.80;8.80
32895;DHT22;19251;49.484;8.260;2023-06-04T07:01:01;21.20;8.80
32895;DHT22;19251;49.484;8.260;2023-06-04T07:06:03;21.40;8.00
32895;DHT22;19251;49.484;8.260;2023-06-04T07:11:06;21.80;7.30
32895;DHT22;19251;49.484;8.260;2023-06-04T07:16:09;22.10;7.00
32895;DHT22;19251;49.484;8.260;2023-06-04T07:21:11;22.40;6.40
32895;DHT22;19251;49.484;8.260;2023-06-04T07:26:13;22.60;6.00
32895;DHT22;19251;49.484;8.260;2023-06-04T07:31:15;22.70;5.80
32895;DHT22;19251;49.484;8.260;2023-06-04T07:36:18;22.80;5.60
32895;DHT22;19251;49.484;8.260;2023-06-04T07:41:22;22.90;5.70
32895;DHT22;19251;49.484;8.260;2023-06-04T07:46:24;22.90;5.00
32895;DHT22;19251;49.484;8.260;2023-06-04T07:51:27;23.00;4.90
32895;DHT22;19251;49.484;8.260;2023-06-04T07:56:29;23.10;4.70
32895;DHT22;19251;49.484;8.260;2023-06-04T08:01:31;23.20;4.20
32895;DHT22;19251;49.484;8.260;2023-06-04T08:06:34;23.50;4.30
32895;DHT22;19251;49.484;8.260;2023-06-04T08:11:37;23.70;3.70
32895;DHT22;19251;49.484;8.260;2023-06-04T08:16:39;23.90;3.60
32895;DHT22;19251;49.484;8.260;2023-06-04T08:21:42;24.10;3.60
32895;DHT22;19251;49.484;8.260;2023-06-04T08:26:46;24.30;3.00
32895;DHT22;19251;49.484;8.260;2023-06-04T08:31:49;24.50;2.70
32895;DHT22;19251;49.484;8.260;2023-06-04T08:36:51;24.80;2.50
32895;DHT22;19251;49.484;8.260;2023-06-04T08:46:57;25.20;1.60
32895;DHT22;19251;49.484;8.260;2023-06-04T08:52:03;25.50;1.10
32895;DHT22;19251;49.484;8.260;2023-06-04T09:02:08;25.90;1.00
32895;DHT22;19251;49.484;8.260;2023-06-04T09:07:11;26.10;1.00
32895;DHT22;19251;49.484;8.260;2023-06-04T09:12:18;26.20;1.00
32895;DHT22;19251;49.484;8.260;2023-06-04T09:17:23;26.20;1.00
32895;DHT22;19251;49.484;8.260;2023-06-04T09:22:35;26.30;1.00
32895;DHT22;19251;49.484;8.260;2023-06-04T09:27:38;26.40;1.00
32895;DHT22;19251;49.484;8.260;2023-06-04T09:32:41;26.60;1.00
32895;DHT22;19251;49.484;8.260;2023-06-04T09:37:53;26.70;1.00
32895;DHT22;19251;49.484;8.260;2023-06-04T09:42:56;26.90;1.00
32895;DHT22;19251;49.484;8.260;2023-06-04T09:47:58;26.90;1.00
32895;DHT22;19251;49.484;8.260;2023-06-04T09:53:01;26.80;1.00
32895;DHT22;19251;49.484;8.260;2023-06-04T09:58:05;27.00;1.00
32895;DHT22;19251;49.484;8.260;2023-06-04T10:08:10;27.20;1.00
32895;DHT22;19251;49.484;8.260;2023-06-04T10:13:17;27.40;1.00
32895;DHT22;19251;49.484;8.260;2023-06-04T10:18:19;27.60;1.00
32895;DHT22;19251;49.484;8.260;2023-06-04T10:23:22;27.80;1.00
32895;DHT22;19251;49.484;8.260;2023-06-04T10:28:25;28.00;1.00
32895;DHT22;19251;49.484;8.260;2023-06-04T10:33:27;28.20;1.00
32895;DHT22;19251;49.484;8.260;2023-06-04T10:38:30;28.50;1.00
32895;DHT22;19251;49.484;8.260;2023-06-04T10:43:32;28.80;1.00
32895;DHT22;19251;49.484;8.260;2023-06-04T10:48:34;29.10;1.00
32895;DHT22;19251;49.484;8.260;2023-06-04T10:53:46;29.40;1.00
32895;DHT22;19251;49.484;8.260;2023-06-04T10:58:48;29.60;1.00
32895;DHT22;19251;49.484;8.260;2023-06-04T11:03:50;29.80;1.00
32895;DHT22;19251;49.484;8.260;2023-06-04T11:09:05;30.00;1.00
32895;DHT22;19251;49.484;8.260;2023-06-04T11:14:10;30.20;1.00
32895;DHT22;19251;49.484;8.260;2023-06-04T11:19:18;30.30;1.00
32895;DHT22;19251;49.484;8.260;2023-06-04T11:24:20;30.40;1.00
32895;DHT22;19251;49.484;8.260;2023-06-04T11:29:22;30.60;1.00
32895;DHT22;19251;49.484;8.260;2023-06-04T11:34:24;30.80;1.00
32895;DHT22;19251;49.484;8.260;2023-06-04T11:39:33;31.10;1.00
32895;DHT22;19251;49.484;8.260;2023-06-04T11:44:35;31.30;1.00
32895;DHT22;19251;49.484;8.260;2023-06-04T11:49:37;31.60;1.00
32895;DHT22;19251;49.484;8.260;2023-06-04T11:54:40;31.70;1.00
32895;DHT22;19251;49.484;8.260;2023-06-04T11:59:42;32.00;1.00
32895;DHT22;19251;49.484;8.260;2023-06-04T12:04:45;32.20;1.00
32895;DHT22;19251;49.484;8.260;2023-06-04T12:09:47;32.40;1.00
32895;DHT22;19251;49.484;8.260;2023-06-04T12:14:56;32.60;1.00
32895;DHT22;19251;49.484;8.260;2023-06-04T12:19:58;32.70;1.00
32895;DHT22;19251;49.484;8.260;2023-06-04T12:25:00;32.90;1.00
32895;DHT22;19251;49.484;8.260;2023-06-04T12:30:05;33.00;1.00
32895;DHT22;19251;49.484;8.260;2023-06-04T12:35:07;33.20;1.00
32895;DHT22;19251;49.484;8.260;2023-06-04T12:40:10;33.30;1.00
32895;DHT22;19251;49.484;8.260;2023-06-04T12:45:12;33.60;1.00
32895;DHT22;19251;49.484;8.260;2023-06-04T12:50:15;33.70;1.00
32895;DHT22;19251;49.484;8.260;2023-06-04T12:55:23;33.80;1.00
32895;DHT22;19251;49.484;8.260;2023-06-04T13:00:29;33.80;1.00
32895;DHT22;19251;49.484;8.260;2023-06-04T13:05:31;34.00;1.00
32895;DHT22;19251;49.484;8.260;2023-06-04T13:10:33;34.20;1.00
32895;DHT22;19251;49.484;8.260;2023-06-04T13:15:35;34.30;1.00
32895;DHT22;19251;49.484;8.260;2023-06-04T13:20:37;34.50;1.00
32895;DHT22;19251;49.484;8.260;2023-06-04T13:25:39;34.70;1.00
32895;DHT22;19251;49.484;8.260;2023-06-04T13:30:41;34.80;1.00
32895;DHT22;19251;49.484;8.260;2023-06-04T13:35:44;35.00;1.00
32895;DHT22;19251;49.484;8.260;2023-06-04T13:40:46;35.30;1.00
32895;DHT22;19251;49.484;8.260;2023-06-04T13:45:48;35.20;1.00
32895;DHT22;19251;49.484;8.260;2023-06-04T13:50:50;35.40;1.00
32895;DHT22;19251;49.484;8.260;2023-06-04T13:55:52;35.60;1.00
32895;DHT22;19251;49.484;8.260;2023-06-04T14:01:00;36.00;1.00
32895;DHT22;19251;49.484;8.260;2023-06-04T14:06:02;36.30;1.00
32895;DHT22;19251;49.484;8.260;2023-06-04T14:11:04;36.80;1.00
32895;DHT22;19251;49.484;8.260;2023-06-04T14:16:06;37.30;1.00
32895;DHT22;19251;49.484;8.260;2023-06-04T14:21:09;37.50;1.00
32895;DHT22;19251;49.484;8.260;2023-06-04T14:26:11;38.00;1.00
32895;DHT22;19251;49.484;8.260;2023-06-04T14:31:14;38.20;1.00
32895;DHT22;19251;49.484;8.260;2023-06-04T14:36:16;38.90;1.00
32895;DHT22;19251;49.484;8.260;2023-06-04T14:41:18;39.40;1.00
32895;DHT22;19251;49.484;8.260;2023-06-04T14:46:20;40.20;1.00
32895;DHT22;19251;49.484;8.260;2023-06-04T14:51:22;40.60;1.00
32895;DHT22;19251;49.484;8.260;2023-06-04T14:56:25;40.90;1.00
32895;DHT22;19251;49.484;8.260;2023-06-04T15:01:28;41.30;1.00
32895;DHT22;19251;49.484;8.260;2023-06-04T15:11:32;42.10;1.00
32895;DHT22;19251;49.484;8.260;2023-06-04T15:16:34;42.50;1.00
32895;DHT22;19251;49.484;8.260;2023-06-04T15:21:37;42.80;1.00
32895;DHT22;19251;49.484;8.260;2023-06-04T15:26:39;43.20;1.00
32895;DHT22;19251;49.484;8.260;2023-06-04T15:31:41;43.50;1.00
32895;DHT22;19251;49.484;8.260;2023-06-04T15:36:43;43.70;1.00
32895;DHT22;19251;49.484;8.260;2023-06-04T15:41:45;43.90;1.00
32895;DHT22;19251;49.484;8.260;2023-06-04T15:46:47;44.10;1.00
32895;DHT22;19251;49.484;8.260;2023-06-04T15:51:49;44.30;1.00
32895;DHT22;19251;49.484;8.260;2023-06-04T15:56:51;44.30;1.00
32895;DHT22;19251;49.484;8.260;2023-06-04T16:01:53;44.60;1.00
32895;DHT22;19251;49.484;8.260;2023-06-04T16:06:55;44.80;1.00
32895;DHT22;19251;49.484;8.260;2023-06-04T16:11:57;45.20;1.00
32895;DHT22;19251;49.484;8.260;2023-06-04T16:16:59;45.40;1.00
32895;DHT22;19251;49.484;8.260;2023-06-04T16:22:02;45.50;1.00
32895;DHT22;19251;49.484;8.260;2023-06-04T16:27:04;45.50;1.00
32895;DHT22;19251;49.484;8.260;2023-06-04T16:32:06;45.50;1.00
32895;DHT22;19251;49.484;8.260;2023-06-04T16:37:08;45.50;1.00
32895;DHT22;19251;49.484;8.260;2023-06-04T16:42:10;45.60;1.00
32895;DHT22;19251;49.484;8.260;2023-06-04T16:47:14;45.60;1.00
32895;DHT22;19251;49.484;8.260;2023-06-04T16:52:16;45.70;1.00
32895;DHT22;19251;49.484;8.260;2023-06-04T16:57:18;45.60;1.00
32895;DHT22;19251;49.484;8.260;2023-06-04T17:02:22;45.50;1.00
32895;DHT22;19251;49.484;8.260;2023-06-04T17:07:27;45.40;1.00
32895;DHT22;19251;49.484;8.260;2023-06-04T17:12:29;45.00;1.00
32895;DHT22;19251;49.484;8.260;2023-06-04T17:17:31;44.40;1.00
32895;DHT22;19251;49.484;8.260;2023-06-04T17:22:34;43.00;1.00
32895;DHT22;19251;49.484;8.260;2023-06-04T17:27:36;41.50;1.00
32895;DHT22;19251;49.484;8.260;2023-06-04T17:32:38;39.80;1.00
32895;DHT22;19251;49.484;8.260;2023-06-04T17:37:40;38.30;1.00
32895;DHT22;19251;49.484;8.260;2023-06-04T17:42:42;37.00;1.00
32895;DHT22;19251;49.484;8.260;2023-06-04T17:47:48;36.10;1.00
32895;DHT22;19251;49.484;8.260;2023-06-04T17:52:50;35.70;1.00
32895;DHT22;19251;49.484;8.260;2023-06-04T17:57:52;35.90;1.00
32895;DHT22;19251;49.484;8.260;2023-06-04T18:02:57;36.40;1.00
32895;DHT22;19251;49.484;8.260;2023-06-04T18:07:59;36.90;1.00
32895;DHT22;19251;49.484;8.260;2023-06-04T18:13:02;37.00;1.00
32895;DHT22;19251;49.484;8.260;2023-06-04T18:18:04;36.40;1.00
32895;DHT22;19251;49.484;8.260;2023-06-04T18:23:06;35.80;1.00
32895;DHT22;19251;49.484;8.260;2023-06-04T18:28:09;34.80;1.00
32895;DHT22;19251;49.484;8.260;2023-06-04T18:33:11;33.60;1.00
32895;DHT22;19251;49.484;8.260;2023-06-04T18:38:13;32.60;1.00
32895;DHT22;19251;49.484;8.260;2023-06-04T18:43:17;31.80;1.00
32895;DHT22;19251;49.484;8.260;2023-06-04T18:48:19;31.10;1.00
32895;DHT22;19251;49.484;8.260;2023-06-04T18:53:21;30.40;1.00
32895;DHT22;19251;49.484;8.260;2023-06-04T18:58:23;29.80;1.00
32895;DHT22;19251;49.484;8.260;2023-06-04T19:03:25;29.20;1.00
32895;DHT22;19251;49.484;8.260;2023-06-04T19:08:27;28.80;1.00
32895;DHT22;19251;49.484;8.260;2023-06-04T19:13:29;28.20;1.00
32895;DHT22;19251;49.484;8.260;2023-06-04T19:18:32;27.80;1.00
32895;DHT22;19251;49.484;8.260;2023-06-04T19:23:34;27.40;1.00
32895;DHT22;19251;49.484;8.260;2023-06-04T19:28:36;27.00;1.00
32895;DHT22;19251;49.484;8.260;2023-06-04T19:33:39;26.80;1.00
32895;DHT22;19251;49.484;8.260;2023-06-04T19:38:41;26.30;1.00
32895;DHT22;19251;49.484;8.260;2023-06-04T19:43:46;26.10;1.00
32895;DHT22;19251;49.484;8.260;2023-06-04T19:48:48;25.60;1.00
32895;DHT22;19251;49.484;8.260;2023-06-04T19:53:50;25.30;1.00
32895;DHT22;19251;49.484;8.260;2023-06-04T19:58:52;25.00;1.00
32895;DHT22;19251;49.484;8.260;2023-06-04T20:03:56;24.90;1.00
32895;DHT22;19251;49.484;8.260;2023-06-04T20:14:39;24.30;1.00
32895;DHT22;19251;49.484;8.260;2023-06-04T20:19:42;24.10;1.00
32895;DHT22;19251;49.484;8.260;2023-06-04T20:24:44;23.90;1.00
32895;DHT22;19251;49.484;8.260;2023-06-04T20:29:46;23.70;1.00
32895;DHT22;19251;49.484;8.260;2023-06-04T20:34:49;23.50;1.00
32895;DHT22;19251;49.484;8.260;2023-06-04T20:39:51;23.40;1.00
32895;DHT22;19251;49.484;8.260;2023-06-04T20:44:53;23.20;1.00
32895;DHT22;19251;49.484;8.260;2023-06-04T20:49:55;23.10;1.00
32895;DHT22;19251;49.484;8.260;2023-06-04T20:54:57;22.90;1.00
32895;DHT22;19251;49.484;8.260;2023-06-04T20:59:59;22.80;1.00
32895;DHT22;19251;49.484;8.260;2023-06-04T21:15:07;22.40;1.00
32895;DHT22;19251;49.484;8.260;2023-06-04T21:25:12;22.10;1.00
32895;DHT22;19251;49.484;8.260;2023-06-04T21:30:14;22.00;1.00
32895;DHT22;19251;49.484;8.260;2023-06-04T21:35:16;21.90;1.00
32895;DHT22;19251;49.484;8.260;2023-06-04T21:40:18;21.70;1.00
32895;DHT22;19251;49.484;8.260;2023-06-04T21:45:21;21.50;1.00
32895;DHT22;19251;49.484;8.260;2023-06-04T21:50:23;21.40;1.00
32895;DHT22;19251;49.484;8.260;2023-06-04T21:55:25;21.30;1.00
32895;DHT22;19251;49.484;8.260;2023-06-04T22:00:27;21.00;1.10
32895;DHT22;19251;49.484;8.260;2023-06-04T22:05:30;20.80;1.30
32895;DHT22;19251;49.484;8.260;2023-06-04T22:10:32;20.60;1.50
32895;DHT22;19251;49.484;8.260;2023-06-04T22:15:34;20.40;1.80
32895;DHT22;19251;49.484;8.260;2023-06-04T22:20:37;20.20;2.20
32895;DHT22;19251;49.484;8.260;2023-06-04T22:25:39;20.00;2.30
32895;DHT22;19251;49.484;8.260;2023-06-04T22:30:41;19.80;2.50
32895;DHT22;19251;49.484;8.260;2023-06-04T22:35:43;19.70;2.80
32895;DHT22;19251;49.484;8.260;2023-06-04T22:40:45;19.50;3.10
32895;DHT22;19251;49.484;8.260;2023-06-04T22:45:48;19.30;3.20
32895;DHT22;19251;49.484;8.260;2023-06-04T22:50:50;19.20;3.50
32895;DHT22;19251;49.484;8.260;2023-06-04T22:55:53;19.00;3.70
32895;DHT22;19251;49.484;8.260;2023-06-04T23:00:56;18.80;3.90
32895;DHT22;19251;49.484;8.260;2023-06-04T23:05:58;18.70;4.20
32895;DHT22;19251;49.484;8.260;2023-06-04T23:11:00;18.50;4.40
32895;DHT22;19251;49.484;8.260;2023-06-04T23:16:02;18.40;4.60
32895;DHT22;19251;49.484;8.260;2023-06-04T23:21:04;18.30;4.90
32895;DHT22;19251;49.484;8.260;2023-06-04T23:26:07;18.20;5.30
32895;DHT22;19251;49.484;8.260;2023-06-04T23:31:09;18.10;5.50
32895;DHT22;19251;49.484;8.260;2023-06-04T23:36:12;18.00;5.70
32895;DHT22;19251;49.484;8.260;2023-06-04T23:41:14;17.90;5.90
32895;DHT22;19251;49.484;8.260;2023-06-04T23:46:16;17.80;6.10
32895;DHT22;19251;49.484;8.260;2023-06-04T23:51:19;17.70;6.40
32895;DHT22;19251;49.484;8.260;2023-06-04T23:56:21;17.70;6.50
